createdAt,value
2023-05-31T04:02:33.490Z,99098.34
2023-05-31T04:04:59.960Z,99103.66
2023-05-31T04:07:26.389Z,99097.91
2023-05-31T04:09:52.800Z,99092.19
2023-05-31T04:12:19.197Z,99102.03
2023-05-31T04:14:45.634Z,99097.22
2023-05-31T04:17:12.027Z,99101.50
2023-05-31T04:19:38.458Z,99093.66
2023-05-31T04:22:05.129Z,99103.25
2023-05-31T04:24:31.753Z,99102.81
2023-05-31T04:26:58.850Z,99109.63
2023-05-31T04:29:26.877Z,99102.56
2023-05-31T04:31:53.511Z,99102.34
2023-05-31T04:34:20.493Z,99100.56
2023-05-31T04:36:49.900Z,99109.16
2023-05-31T04:39:17.855Z,99110.00
2023-05-31T04:41:44.192Z,99107.13
2023-05-31T04:44:10.660Z,99108.38
2023-05-31T04:46:37.574Z,99109.75
2023-05-31T04:49:05.685Z,99108.78
2023-05-31T04:51:32.932Z,99107.47
2023-05-31T04:54:00.061Z,99109.84
2023-05-31T04:56:26.520Z,99116.22
2023-05-31T04:58:52.921Z,99106.94
2023-05-31T05:01:19.407Z,99110.72
2023-05-31T05:03:46.336Z,99110.56
2023-05-31T05:06:14.867Z,99109.28
2023-05-31T05:08:41.818Z,99101.47
2023-05-31T05:11:08.296Z,99099.66
2023-05-31T05:13:35.324Z,99087.56
2023-05-31T05:16:01.740Z,99103.75
2023-05-31T05:18:28.151Z,99105.63
2023-05-31T05:20:54.630Z,99111.16
2023-05-31T05:23:21.083Z,99101.19
2023-05-31T05:25:47.516Z,99108.91
2023-05-31T05:28:13.953Z,99104.44
2023-05-31T05:30:40.580Z,99107.63
2023-05-31T05:33:07.286Z,99112.00
2023-05-31T05:35:34.269Z,99109.34
2023-05-31T05:38:01.070Z,99115.34
2023-05-31T05:40:27.484Z,99107.78
2023-05-31T05:42:55.086Z,99109.03
2023-05-31T05:45:21.503Z,99112.50
2023-05-31T05:47:50.070Z,99106.19
2023-05-31T05:50:16.706Z,99115.00
2023-05-31T05:52:43.241Z,99109.00
2023-05-31T05:55:09.682Z,99104.91
2023-05-31T05:57:36.093Z,99105.28
2023-05-31T06:00:10.695Z,99110.75
2023-05-31T06:02:37.725Z,99111.44
2023-05-31T06:05:04.517Z,99123.91
2023-05-31T06:07:31.027Z,99121.72
2023-05-31T06:09:57.477Z,99120.88
2023-05-31T06:12:23.925Z,99128.25
2023-05-31T06:14:50.619Z,99125.94
2023-05-31T06:17:17.081Z,99125.06
2023-05-31T06:19:43.509Z,99128.06
2023-05-31T06:22:10.098Z,99127.31
2023-05-31T06:24:36.618Z,99120.94
2023-05-31T06:27:03.849Z,99121.50
2023-05-31T06:29:30.562Z,99120.34
2023-05-31T06:31:57.317Z,99117.34
2023-05-31T06:34:23.788Z,99124.25
2023-05-31T06:36:50.211Z,99122.13
2023-05-31T06:39:16.662Z,99118.16
2023-05-31T06:41:43.128Z,99112.16
2023-05-31T06:44:09.517Z,99113.72
2023-05-31T06:46:36.365Z,99116.69
2023-05-31T06:49:12.023Z,99113.69
2023-05-31T06:51:39.775Z,99117.28
2023-05-31T06:54:06.414Z,99105.13
2023-05-31T06:56:32.863Z,99112.41
2023-05-31T06:58:59.302Z,99114.81
2023-05-31T07:01:26.242Z,99111.44
2023-05-31T07:03:52.733Z,99103.97
2023-05-31T07:06:22.131Z,99107.19
2023-05-31T07:08:48.951Z,99109.78
2023-05-31T07:11:15.384Z,99104.75
2023-05-31T07:13:41.938Z,99107.22
2023-05-31T07:16:08.422Z,99100.00
2023-05-31T07:18:34.934Z,99093.66
2023-05-31T07:21:02.083Z,99100.53
2023-05-31T07:23:28.867Z,99093.75
2023-05-31T07:25:55.362Z,99091.81
2023-05-31T07:28:21.840Z,99088.75
2023-05-31T07:30:48.256Z,99092.38
2023-05-31T07:33:14.834Z,99099.84
2023-05-31T07:35:58.159Z,99086.44
2023-05-31T07:38:25.101Z,99087.53
2023-05-31T07:40:51.516Z,99090.63
2023-05-31T07:43:21.985Z,99089.34
2023-05-31T07:45:49.255Z,99085.34
2023-05-31T07:48:15.919Z,99074.78
2023-05-31T07:50:42.327Z,99079.63
2023-05-31T07:53:08.762Z,99079.97
2023-05-31T07:55:35.189Z,99068.69
2023-05-31T07:58:01.737Z,99065.25
2023-05-31T08:00:30.685Z,99065.72
2023-05-31T08:02:58.293Z,99066.69
2023-05-31T08:05:24.784Z,99062.41
2023-05-31T08:07:52.453Z,99064.94
2023-05-31T08:10:19.133Z,99062.34
2023-05-31T08:12:45.570Z,99074.41
2023-05-31T08:15:12.420Z,99055.19
2023-05-31T08:17:38.939Z,99068.75
2023-05-31T08:20:07.895Z,99054.81
2023-05-31T08:22:34.500Z,99056.03
2023-05-31T08:25:00.923Z,99053.81
2023-05-31T08:27:27.343Z,99054.91
2023-05-31T08:29:53.775Z,99060.06
2023-05-31T08:32:21.390Z,99060.16
2023-05-31T08:34:47.804Z,99056.53
2023-05-31T08:37:14.229Z,99051.59
2023-05-31T08:39:40.664Z,99050.50
2023-05-31T08:42:16.162Z,99051.97
2023-05-31T08:44:43.134Z,99050.03
2023-05-31T08:47:20.650Z,99041.59
2023-05-31T08:49:47.579Z,99039.63
2023-05-31T08:52:13.990Z,99042.81
2023-05-31T08:54:40.690Z,99042.75
2023-05-31T08:57:07.576Z,99040.53
2023-05-31T08:59:35.008Z,99037.84
2023-05-31T09:02:02.073Z,99040.00
2023-05-31T09:04:28.819Z,99050.50
2023-05-31T09:06:56.009Z,99039.72
2023-05-31T09:09:23.102Z,99037.28
2023-05-31T09:11:50.590Z,99046.72
2023-05-31T09:14:16.989Z,99045.41
2023-05-31T09:16:43.867Z,99041.25
2023-05-31T09:19:10.376Z,99036.72
2023-05-31T09:21:41.204Z,99038.69
2023-05-31T09:24:08.382Z,99033.78
2023-05-31T09:26:34.956Z,99041.25
2023-05-31T09:29:01.452Z,99036.56
2023-05-31T09:31:28.940Z,99031.03
2023-05-31T09:33:55.802Z,99034.34
2023-05-31T09:36:29.383Z,99026.97
2023-05-31T09:39:06.081Z,99040.41
2023-05-31T09:41:33.927Z,99028.41
2023-05-31T09:44:00.586Z,99029.00
2023-05-31T09:46:27.544Z,99024.25
2023-05-31T09:49:07.446Z,99022.03
2023-05-31T09:51:34.675Z,99014.47
2023-05-31T09:54:02.820Z,99017.66
2023-05-31T09:56:29.487Z,99016.59
2023-05-31T09:58:57.998Z,99013.06
2023-05-31T10:01:24.733Z,99016.53
2023-05-31T10:03:51.830Z,99015.19
2023-05-31T10:06:18.957Z,99016.56
2023-05-31T10:08:49.468Z,99014.16
2023-05-31T10:11:37.027Z,99004.81
2023-05-31T10:14:16.805Z,99007.19
2023-05-31T10:16:49.981Z,99000.00
2023-05-31T10:19:32.397Z,98999.03
2023-05-31T10:22:01.653Z,99004.88
2023-05-31T10:24:34.155Z,98995.88
2023-05-31T10:27:09.310Z,99002.41
2023-05-31T10:29:52.823Z,98995.66
2023-05-31T10:32:27.493Z,98986.00
2023-05-31T10:34:54.348Z,98991.78
2023-05-31T10:37:22.637Z,98985.91
2023-05-31T10:40:12.073Z,98980.59
2023-05-31T10:42:54.578Z,98986.72
2023-05-31T10:45:56.606Z,98980.00
2023-05-31T10:48:44.428Z,98979.75
2023-05-31T10:51:13.188Z,98969.56
2023-05-31T10:53:41.267Z,98970.81
2023-05-31T10:56:10.880Z,98970.28
2023-05-31T10:58:39.360Z,98987.53
2023-05-31T11:01:11.978Z,98976.19
2023-05-31T11:03:55.122Z,98970.72
2023-05-31T11:06:28.089Z,98966.16
2023-05-31T11:08:59.528Z,98960.53
2023-05-31T11:11:29.772Z,98956.34
2023-05-31T11:14:00.493Z,98956.03
2023-05-31T11:16:28.778Z,98954.47
2023-05-31T11:19:06.546Z,98940.69
2023-05-31T11:21:52.189Z,98951.69
2023-05-31T11:24:32.798Z,98936.69
2023-05-31T11:27:01.312Z,98940.16
2023-05-31T11:29:46.203Z,98941.94
2023-05-31T11:32:12.887Z,98941.13
2023-05-31T11:34:59.201Z,98941.78
2023-05-31T11:37:31.003Z,98935.03
2023-05-31T11:40:02.000Z,98932.91
2023-05-31T11:42:32.206Z,98924.75
2023-05-31T11:45:04.861Z,98925.97
2023-05-31T11:47:36.885Z,98923.56
2023-05-31T11:50:03.770Z,98915.28
2023-05-31T11:52:30.355Z,98919.84
2023-05-31T11:55:05.328Z,98918.88
2023-05-31T11:57:31.792Z,98919.72
2023-05-31T12:00:12.760Z,98914.72
2023-05-31T12:02:46.029Z,98907.50
2023-05-31T12:05:13.522Z,98901.81
2023-05-31T12:07:40.116Z,98906.44
2023-05-31T12:10:07.689Z,98903.91
2023-05-31T12:12:34.267Z,98901.56
2023-05-31T12:15:02.931Z,98900.63
2023-05-31T12:17:32.988Z,98900.56
2023-05-31T12:20:00.791Z,98895.66
2023-05-31T12:22:28.053Z,98890.03
2023-05-31T12:24:56.874Z,98893.88
2023-05-31T12:27:43.862Z,98889.03
2023-05-31T12:30:17.268Z,98886.81
2023-05-31T12:32:47.706Z,98888.28
2023-05-31T12:35:15.211Z,98882.03
2023-05-31T12:37:42.212Z,98884.94
2023-05-31T12:40:13.995Z,98882.66
2023-05-31T12:42:40.645Z,98877.03
2023-05-31T12:45:07.904Z,98877.41
2023-05-31T12:47:35.916Z,98878.94
2023-05-31T12:50:07.967Z,98869.91
2023-05-31T12:52:36.589Z,98880.34
2023-05-31T12:55:03.175Z,98872.75
2023-05-31T12:57:29.967Z,98871.63
2023-05-31T13:00:11.031Z,98870.91
2023-05-31T13:02:39.075Z,98872.34
2023-05-31T13:05:06.701Z,98868.00
2023-05-31T13:07:33.813Z,98870.91
2023-05-31T13:10:00.488Z,98858.41
2023-05-31T13:12:26.937Z,98858.78
2023-05-31T13:14:53.682Z,98858.47
2023-05-31T13:17:20.296Z,98847.97
2023-05-31T13:19:56.853Z,98854.53
2023-05-31T13:22:33.400Z,98839.44
2023-05-31T13:24:59.844Z,98843.31
2023-05-31T13:27:26.349Z,98828.31
2023-05-31T13:29:52.814Z,98836.03
2023-05-31T13:32:20.207Z,98826.03
2023-05-31T13:34:46.630Z,98824.47
2023-05-31T13:37:13.147Z,98823.22
2023-05-31T13:39:39.633Z,98818.81
2023-05-31T13:42:06.606Z,98826.50
2023-05-31T13:44:33.101Z,98820.72
2023-05-31T13:46:59.598Z,98818.47
2023-05-31T13:49:26.123Z,98827.13
2023-05-31T13:51:52.568Z,98814.00
2023-05-31T13:54:19.136Z,98812.06
2023-05-31T13:56:46.093Z,98798.47
2023-05-31T13:59:12.984Z,98797.94
2023-05-31T14:01:39.612Z,98797.69
2023-05-31T14:04:06.222Z,98802.78
2023-05-31T14:06:32.913Z,98799.91
2023-05-31T14:08:59.967Z,98797.91
2023-05-31T14:11:27.890Z,98790.09
2023-05-31T14:13:54.395Z,98787.44
2023-05-31T14:16:23.640Z,98784.44
2023-05-31T14:18:50.446Z,98779.94
2023-05-31T14:21:16.947Z,98781.41
2023-05-31T14:23:43.409Z,98774.78
2023-05-31T14:26:09.860Z,98775.47
2023-05-31T14:28:36.304Z,98762.66
2023-05-31T14:31:03.395Z,98771.34
2023-05-31T14:33:30.589Z,98771.84
2023-05-31T14:35:57.403Z,98768.16
2023-05-31T14:38:34.650Z,98765.22
2023-05-31T14:41:02.164Z,98751.53
2023-05-31T14:43:28.936Z,98754.19
2023-05-31T14:45:55.391Z,98750.19
2023-05-31T14:48:22.095Z,98744.59
2023-05-31T14:50:48.742Z,98755.03
2023-05-31T14:53:15.632Z,98749.53
2023-05-31T14:55:42.158Z,98744.78
2023-05-31T14:58:08.613Z,98744.53
2023-05-31T15:00:35.577Z,98739.66
2023-05-31T15:03:02.032Z,98737.84
2023-05-31T15:05:28.500Z,98746.25
2023-05-31T15:07:54.910Z,98739.41
2023-05-31T15:10:21.969Z,98737.66
2023-05-31T15:12:48.401Z,98732.34
2023-05-31T15:15:16.513Z,98732.91
2023-05-31T15:17:43.127Z,98736.56
2023-05-31T15:20:10.361Z,98737.03
2023-05-31T15:22:39.907Z,98736.34
2023-05-31T15:25:06.581Z,98724.16
2023-05-31T15:27:33.017Z,98725.56
2023-05-31T15:29:59.446Z,98717.00
2023-05-31T15:32:25.920Z,98717.31
2023-05-31T15:34:52.359Z,98727.56
2023-05-31T15:37:18.823Z,98716.63
2023-05-31T15:39:45.667Z,98714.03
2023-05-31T15:42:12.098Z,98708.69
2023-05-31T15:44:38.540Z,98718.75
2023-05-31T15:47:05.325Z,98712.00
2023-05-31T15:49:31.760Z,98713.25
2023-05-31T15:51:58.204Z,98708.03
2023-05-31T15:54:24.620Z,98711.84
2023-05-31T15:56:51.049Z,98712.22
2023-05-31T15:59:17.529Z,98704.03
2023-05-31T16:01:44.084Z,98701.28
2023-05-31T16:04:10.829Z,98702.25
2023-05-31T16:06:37.326Z,98700.72
2023-05-31T16:09:03.714Z,98694.88
2023-05-31T16:11:32.203Z,98702.13
2023-05-31T16:13:58.691Z,98692.72
2023-05-31T16:16:25.834Z,98691.38
2023-05-31T16:18:52.356Z,98685.28
2023-05-31T16:21:20.832Z,98683.16
2023-05-31T16:23:47.480Z,98693.00
2023-05-31T16:26:13.893Z,98683.59
2023-05-31T16:28:40.396Z,98677.72
2023-05-31T16:31:13.482Z,98676.00
2023-05-31T16:33:40.237Z,98671.63
2023-05-31T16:36:06.864Z,98671.91
2023-05-31T16:38:33.298Z,98670.94
2023-05-31T16:41:00.041Z,98672.16
2023-05-31T16:43:26.642Z,98671.88
2023-05-31T16:45:52.970Z,98664.81
2023-05-31T16:48:19.393Z,98662.47
2023-05-31T16:50:45.984Z,98662.84
2023-05-31T16:53:12.650Z,98653.72
2023-05-31T16:55:39.084Z,98657.34
2023-05-31T16:58:05.474Z,98650.78
2023-05-31T17:00:31.916Z,98656.50
2023-05-31T17:02:58.664Z,98646.84
2023-05-31T17:05:25.102Z,98649.66
2023-05-31T17:07:52.613Z,98648.16
2023-05-31T17:10:19.479Z,98647.81
2023-05-31T17:12:47.849Z,98647.41
2023-05-31T17:15:14.243Z,98643.03
2023-05-31T17:17:43.544Z,98646.78
2023-05-31T17:20:11.767Z,98641.38
2023-05-31T17:22:39.339Z,98630.00
2023-05-31T17:25:06.331Z,98637.66
2023-05-31T17:27:34.383Z,98637.63
2023-05-31T17:30:01.132Z,98630.34
2023-05-31T17:32:27.890Z,98627.94
2023-05-31T17:34:54.385Z,98631.72
2023-05-31T17:37:21.266Z,98632.28
2023-05-31T17:39:47.630Z,98630.88
2023-05-31T17:42:14.068Z,98623.97
2023-05-31T17:44:40.567Z,98624.94
2023-05-31T17:47:07.456Z,98612.75
2023-05-31T17:49:33.826Z,98618.56
2023-05-31T17:52:00.244Z,98608.72
2023-05-31T17:54:26.664Z,98618.19
2023-05-31T17:56:53.105Z,98607.34
2023-05-31T17:59:19.551Z,98607.03
2023-05-31T18:01:47.788Z,98612.88
2023-05-31T18:04:14.643Z,98607.63
2023-05-31T18:06:41.175Z,98609.06
2023-05-31T18:09:07.949Z,98612.22
2023-05-31T18:11:34.394Z,98606.41
2023-05-31T18:14:01.081Z,98607.03
2023-05-31T18:16:27.619Z,98603.69
2023-05-31T18:18:54.213Z,98604.34
2023-05-31T18:21:21.287Z,98606.06
2023-05-31T18:23:47.726Z,98601.00
2023-05-31T18:26:14.643Z,98602.06
2023-05-31T18:28:41.650Z,98601.91
2023-05-31T18:31:10.524Z,98594.75
2023-05-31T18:33:37.238Z,98605.03
2023-05-31T18:36:03.855Z,98608.69
2023-05-31T18:38:30.305Z,98598.84
2023-05-31T18:40:56.704Z,98601.44
2023-05-31T18:43:23.990Z,98601.31
2023-05-31T18:45:50.551Z,98602.16
2023-05-31T18:48:17.060Z,98603.38
2023-05-31T18:50:43.824Z,98594.69
2023-05-31T18:53:10.288Z,98605.03
2023-05-31T18:55:36.859Z,98605.00
2023-05-31T18:58:03.276Z,98606.81
2023-05-31T19:00:29.718Z,98608.44
2023-05-31T19:02:56.494Z,98610.41
2023-05-31T19:05:23.212Z,98611.16
2023-05-31T19:07:49.645Z,98615.94
2023-05-31T19:10:16.232Z,98608.41
2023-05-31T19:12:42.782Z,98609.78
2023-05-31T19:15:09.565Z,98605.97
2023-05-31T19:17:36.055Z,98607.53
2023-05-31T19:20:04.375Z,98621.28
2023-05-31T19:22:50.858Z,98622.28
2023-05-31T19:25:18.328Z,98618.19
2023-05-31T19:27:46.347Z,98611.03
2023-05-31T19:30:13.586Z,98619.72
2023-05-31T19:32:40.441Z,98623.13
2023-05-31T19:35:08.133Z,98626.75
2023-05-31T19:37:34.927Z,98626.53
2023-05-31T19:40:02.545Z,98621.81
2023-05-31T19:42:29.006Z,98622.19
2023-05-31T19:44:55.875Z,98626.78
2023-05-31T19:47:23.166Z,98629.72
2023-05-31T19:49:49.502Z,98636.19
2023-05-31T19:52:16.466Z,98628.13
2023-05-31T19:54:42.892Z,98634.69
2023-05-31T19:57:09.568Z,98627.19
2023-05-31T19:59:35.982Z,98631.75
